Time;durP1;ratioP1;P1;durP2;ratioP2;P2;SDS_P1;SDS_P2;PMS_P1;PMS_P2;Temp;Humidity;BMP_temperature;BMP_pressure;BME280_temperature;BME280_humidity;BME280_pressure;Samples;Min_cycle;Max_cycle;Signal;HPM_P1;HPM_P2
2021/11/05 00:02:02;;;;;;;3.97;3.63;;;;;;;;;;4994507;28;20204;-73
2021/11/05 00:04:27;;;;;;;8.40;3.50;;;;;;;;;;4992971;28;20181;-73
2021/11/05 00:06:52;;;;;;;4.27;3.40;;;;;;;;;;4996746;28;20182;-73
2021/11/05 00:09:18;;;;;;;4.63;4.00;;;;;;;;;;4996381;28;20198;-73
2021/11/05 00:11:43;;;;;;;4.53;3.37;;;;;;;;;;4994032;28;20235;-73
2021/11/05 00:14:08;;;;;;;3.07;2.77;;;;;;;;;;4997115;28;21131;-73
2021/11/05 00:16:33;;;;;;;4.03;3.60;;;;;;;;;;4996883;28;20184;-73
2021/11/05 00:18:59;;;;;;;4.20;3.17;;;;;;;;;;4993693;28;21986;-73
2021/11/05 00:21:24;;;;;;;4.33;3.13;;;;;;;;;;4994924;28;20184;-73
2021/11/05 00:23:49;;;;;;;4.83;2.73;;;;;;;;;;4997241;28;20220;-73
2021/11/05 00:26:14;;;;;;;3.30;2.40;;;;;;;;;;4990738;28;20224;-73
2021/11/05 00:28:40;;;;;;;4.40;3.13;;;;;;;;;;4996748;28;20274;-74
2021/11/05 00:31:05;;;;;;;3.50;2.87;;;;;;;;;;4991053;28;20608;-73
2021/11/05 00:33:31;;;;;;;5.30;3.00;;;;;;;;;;4995694;28;20185;-73
2021/11/05 00:35:56;;;;;;;4.33;2.77;;;;;;;;;;4996884;28;20708;-73
2021/11/05 00:38:21;;;;;;;6.23;2.07;;;;;;;;;;4998620;28;20220;-73
2021/11/05 00:40:46;;;;;;;4.50;2.60;;;;;;;;;;4993904;28;20193;-74
2021/11/05 00:43:11;;;;;;;3.23;2.10;;;;;;;;;;4997285;28;20208;-73
2021/11/05 00:45:37;;;;;;;6.87;2.60;;;;;;;;;;4990925;28;20224;-73
2021/11/05 00:48:02;;;;;;;3.80;2.07;;;;;;;;;;4992138;28;20194;-73
2021/11/05 00:50:27;;;;;;;2.47;2.00;;;;;;;;;;4993700;28;20169;-73
2021/11/05 00:52:53;;;;;;;3.03;1.77;;;;;;;;;;4991086;28;20181;-73
2021/11/05 00:55:18;;;;;;;6.10;1.53;;;;;;;;;;4991991;28;20644;-73
2021/11/05 00:57:43;;;;;;;3.07;1.73;;;;;;;;;;4993911;28;20595;-73
2021/11/05 01:00:13;;;;;;;3.33;1.40;;;;;;;;;;4996066;28;20173;-73
2021/11/05 01:02:38;;;;;;;4.87;1.20;;;;;;;;;;4994254;28;20323;-74
2021/11/05 01:05:04;;;;;;;4.43;1.30;;;;;;;;;;4993919;28;20923;-73
2021/11/05 01:07:29;;;;;;;4.10;1.50;;;;;;;;;;4993748;28;20227;-73
2021/11/05 01:09:54;;;;;;;2.30;1.10;;;;;;;;;;4996151;28;20840;-74
2021/11/05 01:12:20;;;;;;;3.90;1.10;;;;;;;;;;4996993;28;20279;-73
2021/11/05 01:14:46;;;;;;;4.70;1.00;;;;;;;;;;4994198;28;20666;-74
2021/11/05 01:17:11;;;;;;;3.17;1.50;;;;;;;;;;4993218;28;20584;-73
2021/11/05 01:19:36;;;;;;;2.40;1.10;;;;;;;;;;4995300;28;20212;-73
2021/11/05 01:22:02;;;;;;;4.20;1.33;;;;;;;;;;4992325;28;20264;-73
2021/11/05 01:24:27;;;;;;;3.67;1.00;;;;;;;;;;4994588;28;20181;-73
2021/11/05 01:26:52;;;;;;;4.40;1.30;;;;;;;;;;4991866;28;20698;-73
2021/11/05 01:29:18;;;;;;;3.33;1.40;;;;;;;;;;4996092;28;20280;-73
2021/11/05 01:31:43;;;;;;;1.63;1.00;;;;;;;;;;4998552;28;20184;-73
2021/11/05 01:34:08;;;;;;;1.50;1.00;;;;;;;;;;4994375;28;20181;-74
2021/11/05 01:36:34;;;;;;;3.40;1.00;;;;;;;;;;5001335;28;20257;-74
2021/11/05 01:38:59;;;;;;;1.40;0.77;;;;;;;;;;5002698;28;20196;-74
2021/11/05 01:41:24;;;;;;;3.00;0.97;;;;;;;;;;4996699;28;20241;-74
2021/11/05 01:43:50;;;;;;;1.17;0.87;;;;;;;;;;4999398;28;20211;-74
2021/11/05 01:46:21;;;;;;;4.03;1.30;;;;;;;;;;4996938;28;20742;-74
2021/11/05 01:48:47;;;;;;;3.90;1.13;;;;;;;;;;4998673;28;20197;-73
2021/11/05 01:51:16;;;;;;;1.47;0.90;;;;;;;;;;4997386;28;20451;-74
2021/11/05 01:53:41;;;;;;;4.93;0.90;;;;;;;;;;5000121;28;20185;-74
2021/11/05 01:56:06;;;;;;;2.73;0.90;;;;;;;;;;5000129;28;20439;-74
2021/11/05 01:58:32;;;;;;;1.83;0.80;;;;;;;;;;4996959;28;20219;-74
2021/11/05 02:00:57;;;;;;;2.30;0.90;;;;;;;;;;4998241;28;20240;-74
2021/11/05 02:03:22;;;;;;;5.50;1.10;;;;;;;;;;4997142;28;20239;-73
2021/11/05 02:05:50;;;;;;;1.80;1.03;;;;;;;;;;4998914;28;21058;-74
2021/11/05 02:08:17;;;;;;;3.30;1.00;;;;;;;;;;4996791;28;20226;-74
2021/11/05 02:10:44;;;;;;;1.50;0.90;;;;;;;;;;4997890;28;20770;-73
2021/11/05 02:13:12;;;;;;;4.10;0.87;;;;;;;;;;4995121;28;21934;-74
2021/11/05 02:15:37;;;;;;;2.50;0.70;;;;;;;;;;4992172;28;20432;-73
2021/11/05 02:18:02;;;;;;;4.77;1.10;;;;;;;;;;4995578;28;20465;-74
2021/11/05 02:20:28;;;;;;;3.43;0.90;;;;;;;;;;4998693;28;20181;-74
2021/11/05 02:22:54;;;;;;;1.87;0.80;;;;;;;;;;4996861;28;20204;-74
2021/11/05 02:25:19;;;;;;;1.17;0.80;;;;;;;;;;4992243;28;20653;-73
2021/11/05 02:27:45;;;;;;;1.13;0.90;;;;;;;;;;4997635;28;20444;-74
2021/11/05 02:30:11;;;;;;;1.30;0.77;;;;;;;;;;4999659;28;20650;-73
2021/11/05 02:32:37;;;;;;;2.30;0.70;;;;;;;;;;4999016;28;20239;-73
2021/11/05 02:35:03;;;;;;;2.70;1.00;;;;;;;;;;4999306;28;20485;-74
2021/11/05 02:37:28;;;;;;;1.97;0.70;;;;;;;;;;4998052;28;20432;-74
2021/11/05 02:39:54;;;;;;;2.80;0.90;;;;;;;;;;4995939;28;20435;-74
2021/11/05 02:42:19;;;;;;;2.73;1.10;;;;;;;;;;4997228;28;20189;-74
2021/11/05 02:44:45;;;;;;;2.40;0.87;;;;;;;;;;4997050;28;20174;-74
2021/11/05 02:47:18;;;;;;;1.37;0.90;;;;;;;;;;4993616;28;20180;-73
2021/11/05 02:49:44;;;;;;;1.43;0.60;;;;;;;;;;4993447;28;20224;-74
2021/11/05 02:52:09;;;;;;;3.03;0.80;;;;;;;;;;4995786;28;22215;-74
2021/11/05 02:54:34;;;;;;;2.10;0.70;;;;;;;;;;4997639;28;20180;-74
2021/11/05 02:57:00;;;;;;;1.60;0.70;;;;;;;;;;4998653;28;20185;-74
2021/11/05 02:59:25;;;;;;;1.87;0.87;;;;;;;;;;5026416;23;20240;-74
2021/11/05 03:01:50;;;;;;;15.13;1.00;;;;;;;;;;5023786;28;20180;-76
2021/11/05 03:04:16;;;;;;;2.47;0.90;;;;;;;;;;5027715;28;20247;-74
2021/11/05 03:06:42;;;;;;;5.30;1.00;;;;;;;;;;5028765;28;20184;-75
2021/11/05 03:09:08;;;;;;;2.80;0.80;;;;;;;;;;5028019;28;20461;-74
2021/11/05 03:11:34;;;;;;;2.00;0.90;;;;;;;;;;5027690;28;20235;-74
2021/11/05 03:13:59;;;;;;;2.17;0.87;;;;;;;;;;5027123;28;21515;-74
2021/11/05 03:16:26;;;;;;;6.17;0.90;;;;;;;;;;5024941;28;20189;-74
2021/11/05 03:18:52;;;;;;;7.33;0.83;;;;;;;;;;5025959;28;20586;-74
2021/11/05 03:21:17;;;;;;;4.37;0.90;;;;;;;;;;5027050;28;20534;-74
2021/11/05 03:23:42;;;;;;;4.93;0.90;;;;;;;;;;5025895;28;20253;-74
2021/11/05 03:26:08;;;;;;;2.07;0.90;;;;;;;;;;5025792;28;20284;-74
2021/11/05 03:28:33;;;;;;;2.00;0.80;;;;;;;;;;5023188;28;20204;-74
2021/11/05 03:30:58;;;;;;;1.40;0.80;;;;;;;;;;5022783;28;20169;-74
2021/11/05 03:33:23;;;;;;;0.70;0.70;;;;;;;;;;5026288;28;20242;-74
2021/11/05 03:35:49;;;;;;;3.03;1.00;;;;;;;;;;5028198;28;20697;-75
2021/11/05 03:38:14;;;;;;;4.00;1.10;;;;;;;;;;5024594;28;20219;-73
2021/11/05 03:40:39;;;;;;;2.53;0.87;;;;;;;;;;5026789;28;20195;-74
2021/11/05 03:43:04;;;;;;;5.37;1.10;;;;;;;;;;5026614;28;20196;-74
2021/11/05 03:45:30;;;;;;;2.80;0.90;;;;;;;;;;5025409;28;20172;-74
2021/11/05 03:47:55;;;;;;;3.90;0.90;;;;;;;;;;5024272;28;20223;-73
2021/11/05 03:50:23;;;;;;;3.43;1.37;;;;;;;;;;5025351;28;20548;-73
2021/11/05 03:52:48;;;;;;;2.40;1.00;;;;;;;;;;5027179;28;20197;-75
2021/11/05 03:55:13;;;;;;;6.53;1.20;;;;;;;;;;5026356;28;20443;-73
2021/11/05 03:57:39;;;;;;;2.30;1.00;;;;;;;;;;5024811;28;20283;-73
2021/11/05 04:00:08;;;;;;;1.53;1.30;;;;;;;;;;5023320;28;20188;-73
2021/11/05 04:02:34;;;;;;;2.47;1.10;;;;;;;;;;5024430;28;20204;-73
2021/11/05 04:05:00;;;;;;;4.30;1.13;;;;;;;;;;5021894;28;20435;-73
2021/11/05 04:07:25;;;;;;;4.63;0.90;;;;;;;;;;5027423;28;20796;-73
2021/11/05 04:09:50;;;;;;;2.97;1.00;;;;;;;;;;5024020;28;20173;-73
2021/11/05 04:12:16;;;;;;;1.60;1.00;;;;;;;;;;5024105;28;20188;-73
2021/11/05 04:14:42;;;;;;;6.83;1.00;;;;;;;;;;5024170;28;20189;-73
2021/11/05 04:17:07;;;;;;;3.10;1.10;;;;;;;;;;5023090;28;20438;-73
2021/11/05 04:19:32;;;;;;;1.20;1.00;;;;;;;;;;5025874;28;20203;-74
2021/11/05 04:21:57;;;;;;;3.00;1.00;;;;;;;;;;5022523;28;20208;-73
2021/11/05 04:24:23;;;;;;;2.30;1.30;;;;;;;;;;5025726;28;20220;-73
2021/11/05 04:26:48;;;;;;;5.27;1.20;;;;;;;;;;5020771;28;20203;-73
2021/11/05 04:29:13;;;;;;;4.10;1.10;;;;;;;;;;5026540;28;20211;-73
2021/11/05 04:31:39;;;;;;;5.30;1.30;;;;;;;;;;5022171;28;20188;-73
2021/11/05 04:34:04;;;;;;;2.53;1.10;;;;;;;;;;5024428;28;20250;-73
2021/11/05 04:36:33;;;;;;;1.73;1.30;;;;;;;;;;5023681;28;20180;-73
2021/11/05 04:38:58;;;;;;;2.40;1.20;;;;;;;;;;5026570;28;20196;-73
2021/11/05 04:41:23;;;;;;;3.50;1.33;;;;;;;;;;5023832;28;20496;-73
2021/11/05 04:43:50;;;;;;;3.00;1.03;;;;;;;;;;5022111;28;20204;-73
2021/11/05 04:46:15;;;;;;;4.70;1.30;;;;;;;;;;5021699;28;20692;-73
2021/11/05 04:48:40;;;;;;;6.27;1.30;;;;;;;;;;5025233;28;20446;-73
2021/11/05 04:51:06;;;;;;;5.03;1.30;;;;;;;;;;5023141;28;20191;-73
2021/11/05 04:53:31;;;;;;;2.30;1.13;;;;;;;;;;5024036;28;20184;-73
2021/11/05 04:55:56;;;;;;;3.10;1.17;;;;;;;;;;5019619;28;20183;-73
2021/11/05 04:58:21;;;;;;;2.90;1.53;;;;;;;;;;5022820;28;20258;-73
2021/11/05 05:00:47;;;;;;;4.07;1.93;;;;;;;;;;5019121;28;20204;-73
2021/11/05 05:03:12;;;;;;;2.90;1.30;;;;;;;;;;5026939;28;20196;-73
2021/11/05 05:05:37;;;;;;;2.73;1.20;;;;;;;;;;5026518;28;20685;-73
2021/11/05 05:08:03;;;;;;;4.70;1.50;;;;;;;;;;5030549;28;20274;-73
2021/11/05 05:10:28;;;;;;;4.67;1.50;;;;;;;;;;5028816;28;20214;-74
2021/11/05 05:12:54;;;;;;;5.40;1.00;;;;;;;;;;5028832;28;20266;-74
2021/11/05 05:15:19;;;;;;;8.47;1.60;;;;;;;;;;5027403;28;20250;-74
2021/11/05 05:17:45;;;;;;;1.60;1.03;;;;;;;;;;5028190;28;20909;-74
2021/11/05 05:20:12;;;;;;;3.93;1.53;;;;;;;;;;5027658;28;20267;-74
2021/11/05 05:22:37;;;;;;;2.47;1.77;;;;;;;;;;5030773;28;20200;-74
2021/11/05 05:25:03;;;;;;;2.50;1.37;;;;;;;;;;5021867;28;20430;-73
2021/11/05 05:27:29;;;;;;;3.23;1.40;;;;;;;;;;5028443;28;20235;-74
2021/11/05 05:29:54;;;;;;;4.03;1.00;;;;;;;;;;5030970;28;20514;-74
2021/11/05 05:32:19;;;;;;;1.90;1.10;;;;;;;;;;5025480;28;20187;-74
2021/11/05 05:34:44;;;;;;;3.33;1.07;;;;;;;;;;5028236;28;20191;-73
2021/11/05 05:37:10;;;;;;;2.93;1.20;;;;;;;;;;5027239;28;21033;-73
2021/11/05 05:39:35;;;;;;;2.60;1.10;;;;;;;;;;5029047;28;20213;-73
2021/11/05 05:42:00;;;;;;;2.90;1.20;;;;;;;;;;5024211;28;20208;-73
2021/11/05 05:44:25;;;;;;;4.50;1.20;;;;;;;;;;5028028;28;20706;-73
2021/11/05 05:46:51;;;;;;;3.73;1.30;;;;;;;;;;5020865;28;20217;-74
2021/11/05 05:49:16;;;;;;;2.83;1.23;;;;;;;;;;5025870;28;20222;-75
2021/11/05 05:51:41;;;;;;;3.17;1.30;;;;;;;;;;5022078;28;20554;-75
2021/11/05 05:54:07;;;;;;;3.47;1.40;;;;;;;;;;5023138;28;20184;-74
2021/11/05 05:56:33;;;;;;;4.10;1.40;;;;;;;;;;5027546;28;20215;-75
2021/11/05 05:58:58;;;;;;;3.63;1.27;;;;;;;;;;5002837;23;20222;-73
2021/11/05 06:01:23;;;;;;;3.90;1.60;;;;;;;;;;4978083;28;20178;-73
2021/11/05 06:03:48;;;;;;;5.03;1.53;;;;;;;;;;4967496;28;20210;-73
2021/11/05 06:06:13;;;;;;;3.53;1.50;;;;;;;;;;4975891;28;20229;-73
2021/11/05 06:08:40;;;;;;;4.07;1.20;;;;;;;;;;4975610;28;20280;-74
2021/11/05 06:11:06;;;;;;;1.33;0.90;;;;;;;;;;4979998;28;20694;-74
2021/11/05 06:13:31;;;;;;;2.20;1.23;;;;;;;;;;4976683;28;20436;-74
2021/11/05 06:15:58;;;;;;;6.03;1.30;;;;;;;;;;4976258;28;20202;-74
2021/11/05 06:18:23;;;;;;;1.80;1.30;;;;;;;;;;4968164;28;20204;-74
2021/11/05 06:20:49;;;;;;;4.97;1.20;;;;;;;;;;4977698;28;20437;-75
2021/11/05 06:23:14;;;;;;;1.37;1.00;;;;;;;;;;4978255;28;20296;-75
2021/11/05 06:25:40;;;;;;;3.23;0.90;;;;;;;;;;4958717;28;20271;-74
2021/11/05 06:28:05;;;;;;;3.27;1.10;;;;;;;;;;4970606;28;20968;-74
2021/11/05 06:30:30;;;;;;;3.80;1.50;;;;;;;;;;4960764;28;20492;-74
2021/11/05 06:32:57;;;;;;;4.63;1.33;;;;;;;;;;4981035;28;20182;-75
2021/11/05 06:35:22;;;;;;;2.57;1.43;;;;;;;;;;4963116;28;20185;-75
2021/11/05 06:37:48;;;;;;;5.90;1.10;;;;;;;;;;4980989;28;20476;-75
2021/11/05 06:40:13;;;;;;;5.33;1.03;;;;;;;;;;4978734;28;20189;-75
2021/11/05 06:42:39;;;;;;;5.80;1.27;;;;;;;;;;4967833;28;21915;-74
2021/11/05 06:45:05;;;;;;;1.73;1.00;;;;;;;;;;4964027;28;20273;-75
2021/11/05 06:47:30;;;;;;;6.57;2.13;;;;;;;;;;4978796;28;20208;-76
2021/11/05 06:49:55;;;;;;;3.90;1.20;;;;;;;;;;4980100;28;20461;-75
2021/11/05 06:52:21;;;;;;;2.70;1.13;;;;;;;;;;4981364;28;20186;-76
2021/11/05 06:54:46;;;;;;;2.77;1.00;;;;;;;;;;4979567;28;20562;-76
2021/11/05 06:57:11;;;;;;;4.50;1.30;;;;;;;;;;4983235;28;20208;-75
2021/11/05 06:59:37;;;;;;;3.00;1.30;;;;;;;;;;4983780;28;20260;-75
2021/11/05 07:02:03;;;;;;;3.00;1.17;;;;;;;;;;4980396;28;20182;-75
2021/11/05 07:04:28;;;;;;;5.80;1.27;;;;;;;;;;4983508;28;20634;-75
2021/11/05 07:06:54;;;;;;;6.30;1.93;;;;;;;;;;4984329;28;20428;-73
2021/11/05 07:09:19;;;;;;;4.53;1.33;;;;;;;;;;4984173;28;20197;-73
2021/11/05 07:11:45;;;;;;;3.07;1.50;;;;;;;;;;4980459;28;20277;-73
2021/11/05 07:14:11;;;;;;;4.40;1.00;;;;;;;;;;4978864;28;20236;-73
2021/11/05 07:16:37;;;;;;;3.63;1.30;;;;;;;;;;4980485;28;21152;-73
2021/11/05 07:19:02;;;;;;;2.83;1.30;;;;;;;;;;4962285;28;20194;-72
2021/11/05 07:21:28;;;;;;;7.03;1.40;;;;;;;;;;4980358;28;20426;-72
2021/11/05 07:24:00;;;;;;;2.87;1.30;;;;;;;;;;4981001;28;20193;-73
2021/11/05 07:26:28;;;;;;;2.90;1.17;;;;;;;;;;4979797;28;20669;-73
2021/11/05 07:28:53;;;;;;;5.67;1.50;;;;;;;;;;4979495;28;20468;-74
2021/11/05 07:31:18;;;;;;;5.87;1.07;;;;;;;;;;4979657;28;20457;-74
2021/11/05 07:33:43;;;;;;;5.27;1.83;;;;;;;;;;4976310;28;20539;-74
2021/11/05 07:36:09;;;;;;;2.20;1.00;;;;;;;;;;4980850;28;20556;-74
2021/11/05 07:38:34;;;;;;;1.70;1.20;;;;;;;;;;4977583;28;20202;-73
2021/11/05 07:40:59;;;;;;;2.67;1.13;;;;;;;;;;4982253;28;20197;-74
2021/11/05 07:43:24;;;;;;;2.50;0.83;;;;;;;;;;4979839;28;20218;-73
2021/11/05 07:45:50;;;;;;;2.83;1.10;;;;;;;;;;4975272;28;20178;-73
2021/11/05 07:48:15;;;;;;;1.80;0.90;;;;;;;;;;4980000;28;20201;-73
2021/11/05 07:50:40;;;;;;;1.53;0.80;;;;;;;;;;4979386;28;20186;-73
2021/11/05 07:53:06;;;;;;;1.50;1.20;;;;;;;;;;4980080;28;20665;-73
2021/11/05 07:55:31;;;;;;;1.67;1.30;;;;;;;;;;4979996;28;20185;-73
2021/11/05 07:57:57;;;;;;;2.40;1.00;;;;;;;;;;4981979;28;20588;-74
2021/11/05 08:00:22;;;;;;;2.60;1.00;;;;;;;;;;4980072;28;26286;-73
2021/11/05 08:02:48;;;;;;;2.33;1.40;;;;;;;;;;4975457;28;20201;-73
2021/11/05 08:05:13;;;;;;;4.70;1.20;;;;;;;;;;4958084;28;20641;-73
2021/11/05 08:07:39;;;;;;;4.80;1.20;;;;;;;;;;4976912;28;20224;-72
2021/11/05 08:10:05;;;;;;;3.43;1.17;;;;;;;;;;4976525;28;20201;-73
2021/11/05 08:12:30;;;;;;;2.80;1.27;;;;;;;;;;4977145;28;20425;-72
2021/11/05 08:14:55;;;;;;;4.20;1.60;;;;;;;;;;4979013;28;20194;-73
2021/11/05 08:17:21;;;;;;;3.70;0.93;;;;;;;;;;4978924;28;20214;-75
2021/11/05 08:19:46;;;;;;;2.90;1.00;;;;;;;;;;4977709;28;20202;-73
2021/11/05 08:22:11;;;;;;;1.67;1.10;;;;;;;;;;4978566;28;20202;-73
2021/11/05 08:24:36;;;;;;;6.50;1.13;;;;;;;;;;4981332;28;20526;-73
2021/11/05 08:27:02;;;;;;;5.13;1.27;;;;;;;;;;4967962;28;20182;-73
2021/11/05 08:29:27;;;;;;;1.70;0.80;;;;;;;;;;4977792;28;20197;-74
2021/11/05 08:31:52;;;;;;;5.10;1.10;;;;;;;;;;4965073;28;20212;-76
2021/11/05 08:34:18;;;;;;;1.43;0.77;;;;;;;;;;4958206;28;20217;-74
2021/11/05 08:36:43;;;;;;;2.50;1.03;;;;;;;;;;4966293;28;20183;-74
2021/11/05 08:39:08;;;;;;;2.63;0.83;;;;;;;;;;4973001;28;20202;-74
2021/11/05 08:41:34;;;;;;;2.97;1.10;;;;;;;;;;4979656;28;20185;-74
2021/11/05 08:43:59;;;;;;;6.73;1.10;;;;;;;;;;4975234;28;20306;-74
2021/11/05 08:46:25;;;;;;;4.43;1.03;;;;;;;;;;4979438;28;20185;-74
2021/11/05 08:48:55;;;;;;;2.60;1.00;;;;;;;;;;4976743;28;20198;-75
2021/11/05 08:51:21;;;;;;;2.80;0.97;;;;;;;;;;4977975;28;20432;-74
2021/11/05 08:53:46;;;;;;;2.20;1.10;;;;;;;;;;4979975;28;20494;-74
2021/11/05 08:56:12;;;;;;;3.60;1.10;;;;;;;;;;4957802;28;20464;-75
2021/11/05 08:58:37;;;;;;;2.23;0.97;;;;;;;;;;4975716;28;20810;-74
2021/11/05 09:01:25;;;;;;;2.70;1.00;;;;;;;;;;4974305;28;20185;-74
2021/11/05 09:07:13;;;;;;;3.47;0.97;;;;;;;;;;4974907;28;20505;-74
2021/11/05 09:10:06;;;;;;;1.77;0.90;;;;;;;;;;4973171;28;20457;-74
2021/11/05 09:13:17;;;;;;;8.77;1.33;;;;;;;;;;4962724;28;20180;-74
2021/11/05 09:18:27;;;;;;;2.07;1.27;;;;;;;;;;5321746;23;20491;-76
2021/11/05 09:20:52;;;;;;;2.17;1.00;;;;;;;;;;4971825;28;20527;-75
2021/11/05 09:23:20;;;;;;;4.43;1.20;;;;;;;;;;4973610;28;20206;-75
2021/11/05 09:25:45;;;;;;;4.03;0.90;;;;;;;;;;4962841;28;20174;-75
2021/11/05 09:28:10;;;;;;;2.60;0.90;;;;;;;;;;4971936;28;20514;-76
2021/11/05 09:30:36;;;;;;;2.93;0.97;;;;;;;;;;4975763;28;20707;-75
2021/11/05 09:33:01;;;;;;;3.63;0.80;;;;;;;;;;4967729;28;20198;-75
2021/11/05 09:35:27;;;;;;;2.70;1.20;;;;;;;;;;4975221;28;20276;-75
2021/11/05 09:37:53;;;;;;;2.37;0.77;;;;;;;;;;4973090;28;20209;-75
2021/11/05 09:40:20;;;;;;;1.83;0.90;;;;;;;;;;4977154;28;20437;-76
2021/11/05 09:42:47;;;;;;;5.10;0.80;;;;;;;;;;4969736;28;20249;-76
2021/11/05 09:45:16;;;;;;;2.00;1.10;;;;;;;;;;4977996;28;20464;-76
2021/11/05 09:47:42;;;;;;;4.87;0.70;;;;;;;;;;4976890;28;20647;-77
2021/11/05 09:50:08;;;;;;;3.10;0.60;;;;;;;;;;4979919;28;20909;-77
2021/11/05 09:52:33;;;;;;;4.70;1.00;;;;;;;;;;4976799;28;20515;-75
2021/11/05 09:54:59;;;;;;;1.67;0.90;;;;;;;;;;4961106;28;20484;-76
2021/11/05 09:57:24;;;;;;;1.53;0.80;;;;;;;;;;4981025;28;20292;-77
2021/11/05 09:59:50;;;;;;;1.60;0.60;;;;;;;;;;4978748;28;20324;-76
2021/11/05 10:02:17;;;;;;;2.50;0.80;;;;;;;;;;4974375;28;20561;-76
2021/11/05 10:04:44;;;;;;;1.83;1.03;;;;;;;;;;4975677;28;20206;-76
2021/11/05 10:07:10;;;;;;;4.77;0.80;;;;;;;;;;4977952;28;21033;-76
2021/11/05 10:09:37;;;;;;;1.43;0.80;;;;;;;;;;4975638;28;20430;-76
2021/11/05 10:12:07;;;;;;;2.90;0.80;;;;;;;;;;4982592;28;20433;-76
2021/11/05 10:14:32;;;;;;;2.03;0.70;;;;;;;;;;4977141;28;20449;-76
2021/11/05 10:16:59;;;;;;;2.00;0.70;;;;;;;;;;4978617;28;21587;-76
2021/11/05 10:19:24;;;;;;;2.33;0.70;;;;;;;;;;4980443;28;20212;-75
2021/11/05 10:21:50;;;;;;;5.83;0.80;;;;;;;;;;4981202;28;20436;-76
2021/11/05 10:24:17;;;;;;;1.03;0.80;;;;;;;;;;4981272;28;20213;-76
2021/11/05 10:26:43;;;;;;;1.10;0.87;;;;;;;;;;4977235;28;20174;-76
2021/11/05 10:29:23;;;;;;;3.93;1.13;;;;;;;;;;4960577;28;20603;-77
2021/11/05 10:31:48;;;;;;;1.67;0.77;;;;;;;;;;4977456;28;20220;-76
2021/11/05 10:34:13;;;;;;;1.13;0.80;;;;;;;;;;4960323;28;20472;-76
2021/11/05 10:36:38;;;;;;;1.20;0.73;;;;;;;;;;4981730;28;20181;-76
2021/11/05 10:39:04;;;;;;;2.50;0.60;;;;;;;;;;4981063;28;20691;-76
2021/11/05 10:41:30;;;;;;;1.20;0.67;;;;;;;;;;4984504;28;20644;-76
2021/11/05 10:44:14;;;;;;;0.97;0.67;;;;;;;;;;4980667;28;20644;-76
2021/11/05 10:46:40;;;;;;;2.27;0.70;;;;;;;;;;4982217;28;20424;-76
2021/11/05 10:49:07;;;;;;;3.30;0.83;;;;;;;;;;4976227;28;20986;-76
2021/11/05 10:51:33;;;;;;;0.73;0.60;;;;;;;;;;4977586;28;20178;-76
2021/11/05 10:53:59;;;;;;;1.57;0.60;;;;;;;;;;4956877;28;20488;-76
2021/11/05 10:56:26;;;;;;;1.10;0.63;;;;;;;;;;4960389;28;20190;-76
2021/11/05 10:59:02;;;;;;;2.70;0.60;;;;;;;;;;4969485;28;20476;-76
2021/11/05 11:01:34;;;;;;;1.13;0.90;;;;;;;;;;4980625;28;20444;-76
2021/11/05 11:04:01;;;;;;;3.13;0.83;;;;;;;;;;4980420;28;20832;-76
2021/11/05 11:06:28;;;;;;;2.23;0.60;;;;;;;;;;4983264;28;20425;-76
2021/11/05 11:08:55;;;;;;;2.83;1.13;;;;;;;;;;4978434;28;21245;-76
2021/11/05 11:11:31;;;;;;;3.10;0.73;;;;;;;;;;4975216;28;20458;-76
2021/11/05 11:13:56;;;;;;;4.90;0.73;;;;;;;;;;4979688;28;20452;-75
2021/11/05 11:16:29;;;;;;;2.10;0.70;;;;;;;;;;4966026;28;20476;-76
2021/11/05 11:18:56;;;;;;;1.20;0.53;;;;;;;;;;4961867;28;20256;-76
2021/11/05 11:21:22;;;;;;;1.80;0.90;;;;;;;;;;4974754;28;20530;-76
2021/11/05 11:23:48;;;;;;;3.17;0.80;;;;;;;;;;4973988;28;21133;-77
2021/11/05 11:26:14;;;;;;;1.67;0.97;;;;;;;;;;4975194;28;20483;-77
2021/11/05 11:28:41;;;;;;;1.60;0.70;;;;;;;;;;4977368;28;20208;-76
2021/11/05 11:31:07;;;;;;;2.27;0.60;;;;;;;;;;4980262;28;20166;-77
2021/11/05 11:33:32;;;;;;;4.03;0.90;;;;;;;;;;4979089;28;20432;-76
2021/11/05 11:35:58;;;;;;;1.77;0.70;;;;;;;;;;4974117;28;20186;-77
2021/11/05 11:38:24;;;;;;;2.40;0.70;;;;;;;;;;4975226;28;20863;-77
2021/11/05 11:40:50;;;;;;;1.57;0.60;;;;;;;;;;4976201;28;20433;-77
2021/11/05 11:43:16;;;;;;;4.20;0.70;;;;;;;;;;4982575;28;20465;-77
2021/11/05 11:45:46;;;;;;;2.17;0.80;;;;;;;;;;4977555;28;20182;-77
2021/11/05 11:48:11;;;;;;;1.57;0.60;;;;;;;;;;4969090;28;20445;-76
2021/11/05 11:50:38;;;;;;;3.17;0.70;;;;;;;;;;4973870;28;20430;-77
2021/11/05 11:53:05;;;;;;;2.37;0.80;;;;;;;;;;4970819;28;20261;-76
2021/11/05 11:55:31;;;;;;;1.13;0.80;;;;;;;;;;4979074;28;20435;-78
2021/11/05 11:58:13;;;;;;;5.67;0.87;;;;;;;;;;4974649;28;20471;-77
2021/11/05 12:00:40;;;;;;;2.10;0.60;;;;;;;;;;4973345;28;20468;-75
2021/11/05 12:03:08;;;;;;;2.33;0.57;;;;;;;;;;4973149;28;20517;-75
2021/11/05 12:05:33;;;;;;;2.40;0.80;;;;;;;;;;4962011;28;20440;-75
2021/11/05 12:08:37;;;;;;;3.30;0.70;;;;;;;;;;4973645;28;20476;-76
2021/11/05 12:11:17;;;;;;;1.67;0.60;;;;;;;;;;4906645;29;20693;-75
2021/11/05 12:13:44;;;;;;;2.37;0.70;;;;;;;;;;4904849;29;20436;-77
2021/11/05 12:16:09;;;;;;;2.00;0.67;;;;;;;;;;4952180;28;20439;-75
2021/11/05 12:19:07;;;;;;;1.93;1.07;;;;;;;;;;4973927;28;20448;-75
2021/11/05 12:21:35;;;;;;;3.80;0.83;;;;;;;;;;4956257;28;20224;-75
2021/11/05 12:24:20;;;;;;;4.07;0.73;;;;;;;;;;4975225;28;20511;-76
2021/11/05 12:26:47;;;;;;;2.27;0.60;;;;;;;;;;4969728;28;20876;-75
2021/11/05 12:29:31;;;;;;;1.97;0.80;;;;;;;;;;4973826;28;20444;-75
2021/11/05 12:31:56;;;;;;;6.10;0.87;;;;;;;;;;4978636;28;20497;-75
2021/11/05 12:34:23;;;;;;;5.87;1.40;;;;;;;;;;4961329;28;20583;-76
2021/11/05 12:36:51;;;;;;;2.37;0.97;;;;;;;;;;4975531;28;20177;-74
2021/11/05 12:39:27;;;;;;;4.77;0.80;;;;;;;;;;4965571;28;20528;-75
2021/11/05 12:41:59;;;;;;;3.93;1.00;;;;;;;;;;4976655;28;20960;-73
2021/11/05 12:44:28;;;;;;;3.03;0.70;;;;;;;;;;4977921;28;20834;-75
2021/11/05 12:46:53;;;;;;;2.70;0.90;;;;;;;;;;4978413;28;20512;-74
2021/11/05 12:49:19;;;;;;;5.70;0.90;;;;;;;;;;4981489;28;20525;-75
2021/11/05 12:51:48;;;;;;;4.17;1.00;;;;;;;;;;4979647;28;21250;-74
2021/11/05 12:54:17;;;;;;;3.67;1.00;;;;;;;;;;4977535;28;20441;-75
2021/11/05 12:56:45;;;;;;;3.47;0.83;;;;;;;;;;4979026;28;20627;-75
2021/11/05 12:59:15;;;;;;;2.40;1.03;;;;;;;;;;4980827;28;20456;-75
2021/11/05 13:01:40;;;;;;;3.30;1.40;;;;;;;;;;4977162;28;20949;-75
2021/11/05 13:04:16;;;;;;;4.70;1.17;;;;;;;;;;4977940;28;20460;-75
2021/11/05 13:07:09;;;;;;;6.30;1.10;;;;;;;;;;4978462;28;20189;-75
2021/11/05 13:09:37;;;;;;;3.37;1.00;;;;;;;;;;4969529;28;20927;-76
2021/11/05 13:12:12;;;;;;;4.00;1.10;;;;;;;;;;4976289;28;20433;-75
2021/11/05 13:14:46;;;;;;;4.13;0.93;;;;;;;;;;4968359;28;20511;-75
2021/11/05 13:17:16;;;;;;;4.13;1.07;;;;;;;;;;4973744;28;20520;-75
2021/11/05 13:19:45;;;;;;;4.13;1.00;;;;;;;;;;4973621;28;20441;-76
2021/11/05 13:22:11;;;;;;;4.40;1.00;;;;;;;;;;4975051;28;20507;-76
2021/11/05 13:24:36;;;;;;;4.67;1.40;;;;;;;;;;4978363;28;20417;-75
2021/11/05 13:27:03;;;;;;;4.07;1.03;;;;;;;;;;4973846;28;20204;-74
2021/11/05 13:29:28;;;;;;;5.93;1.20;;;;;;;;;;4981897;28;20182;-76
2021/11/05 13:32:07;;;;;;;7.40;1.27;;;;;;;;;;4977862;28;20945;-76
2021/11/05 13:34:36;;;;;;;3.70;1.00;;;;;;;;;;4967396;28;20197;-75
2021/11/05 13:37:01;;;;;;;5.93;1.00;;;;;;;;;;4983106;28;20798;-76
2021/11/05 13:39:26;;;;;;;10.83;1.60;;;;;;;;;;4980507;28;20441;-75
2021/11/05 13:41:51;;;;;;;4.57;1.17;;;;;;;;;;4977783;28;20184;-75
2021/11/05 13:44:17;;;;;;;6.07;1.63;;;;;;;;;;4979883;28;20614;-77
2021/11/05 13:46:42;;;;;;;5.47;1.10;;;;;;;;;;4984274;28;20665;-76
2021/11/05 13:49:07;;;;;;;5.77;1.07;;;;;;;;;;4982104;28;20194;-76
2021/11/05 13:51:37;;;;;;;3.17;0.90;;;;;;;;;;4984722;28;20265;-77
2021/11/05 13:54:04;;;;;;;5.97;1.17;;;;;;;;;;4984010;28;20214;-77
2021/11/05 13:56:31;;;;;;;7.17;0.93;;;;;;;;;;4984307;28;20561;-78
2021/11/05 13:58:58;;;;;;;4.13;1.07;;;;;;;;;;4983377;28;20444;-77
2021/11/05 14:01:27;;;;;;;4.50;1.00;;;;;;;;;;4984051;28;20464;-76
2021/11/05 14:03:56;;;;;;;4.33;0.80;;;;;;;;;;4986094;28;20452;-77
2021/11/05 14:06:22;;;;;;;4.57;0.93;;;;;;;;;;4983828;28;20432;-76
2021/11/05 14:08:58;;;;;;;2.40;0.73;;;;;;;;;;4985438;28;20491;-77
2021/11/05 14:11:27;;;;;;;3.17;1.20;;;;;;;;;;4984812;28;20275;-78
2021/11/05 14:13:52;;;;;;;6.10;1.40;;;;;;;;;;4986331;28;20433;-77
2021/11/05 14:16:18;;;;;;;3.70;0.90;;;;;;;;;;4985783;28;20435;-76
2021/11/05 14:18:43;;;;;;;8.03;1.27;;;;;;;;;;4986254;28;20221;-77
2021/11/05 14:21:19;;;;;;;4.60;1.10;;;;;;;;;;4984092;28;20182;-76
2021/11/05 14:23:44;;;;;;;1.83;0.70;;;;;;;;;;4980641;28;20202;-76
2021/11/05 14:26:36;;;;;;;1.27;0.67;;;;;;;;;;4978237;28;20440;-77
2021/11/05 14:29:12;;;;;;;2.43;0.70;;;;;;;;;;4964260;28;20607;-76
2021/11/05 14:31:51;;;;;;;3.67;0.80;;;;;;;;;;4979605;28;20514;-76
2021/11/05 14:34:16;;;;;;;1.83;0.70;;;;;;;;;;4965768;28;20502;-76
2021/11/05 14:36:41;;;;;;;3.30;0.80;;;;;;;;;;4967629;28;20445;-77
2021/11/05 14:39:06;;;;;;;2.00;0.90;;;;;;;;;;4984620;28;20193;-76
2021/11/05 14:41:32;;;;;;;1.57;0.90;;;;;;;;;;4983534;28;20185;-76
2021/11/05 14:44:00;;;;;;;3.90;1.10;;;;;;;;;;4983781;28;20189;-76
2021/11/05 14:46:25;;;;;;;3.07;0.70;;;;;;;;;;4965359;28;20179;-76
2021/11/05 14:48:51;;;;;;;5.43;0.80;;;;;;;;;;4983299;28;20696;-76